Time;durP1;ratioP1;P1;durP2;ratioP2;P2;SDS_P1;SDS_P2;PMS_P1;PMS_P2;Temp;Humidity;BMP_temperature;BMP_pressure;BME280_temperature;BME280_humidity;BME280_pressure;Samples;Min_cycle;Max_cycle;Signal;HPM_P1;HPM_P2
2021/05/19 00:00:13;;;;;;;2.25;2.05;;;;;;;37.02;40.37;160940.16;1629539;88;21333;-91
2021/05/19 00:02:45;;;;;;;3.08;2.30;;;;;;;37.04;40.31;160948.19;1605079;89;21388;-91
2021/05/19 00:05:17;;;;;;;3.72;2.47;;;;;;;36.78;40.68;160877.20;1621580;87;21337;-91
2021/05/19 00:07:49;;;;;;;2.95;2.12;;;;;;;36.80;40.65;160882.56;1629504;88;21445;-90
2021/05/19 00:10:22;;;;;;;2.87;2.05;;;;;;;36.96;40.41;160925.42;1629450;87;21194;-89
2021/05/19 00:12:54;;;;;;;4.58;2.67;;;;;;;37.00;40.35;160936.16;1629376;87;21377;-91
2021/05/19 00:15:27;;;;;;;3.72;2.50;;;;;;;36.96;40.34;160925.42;1629556;88;21340;-91
2021/05/19 00:18:06;;;;;;;2.33;2.05;;;;;;;37.00;40.31;160936.16;1629543;87;21357;-91
2021/05/19 00:20:42;;;;;;;3.20;2.37;;;;;;;37.00;40.31;160934.78;1629434;86;21226;-91
2021/05/19 00:23:14;;;;;;;3.42;2.30;;;;;;;37.03;40.25;160944.20;1629522;88;21388;-90
2021/05/19 00:25:46;;;;;;;2.92;2.33;;;;;;;37.08;40.20;160957.56;1629741;87;21911;-89
2021/05/19 00:28:19;;;;;;;2.80;2.50;;;;;;;37.04;40.22;160946.83;1629196;86;21734;-92
2021/05/19 00:30:55;;;;;;;3.02;2.50;;;;;;;37.03;40.23;160944.20;1629314;88;21384;-90
2021/05/19 00:33:26;;;;;;;2.20;2.00;;;;;;;36.83;40.45;160890.56;1629488;88;21793;-90
2021/05/19 00:35:59;;;;;;;4.42;2.22;;;;;;;37.09;40.08;160961.56;1628760;87;21342;-90
2021/05/19 00:38:32;;;;;;;3.12;2.47;;;;;;;37.11;40.05;160965.59;1629675;88;21377;-91
2021/05/19 00:41:04;;;;;;;2.47;2.27;;;;;;;37.06;40.06;160953.56;1629396;87;21282;-90
2021/05/19 00:43:37;;;;;;;6.72;2.95;;;;;;;37.06;40.04;160952.19;1630109;87;21252;-90
2021/05/19 00:46:09;;;;;;;2.58;2.08;;;;;;;37.04;40.04;160948.19;1632473;88;21366;-91
2021/05/19 00:48:42;;;;;;;2.67;2.47;;;;;;;37.06;40.01;160952.19;1592329;89;21266;-90
2021/05/19 00:51:15;;;;;;;2.52;2.33;;;;;;;37.12;39.88;160969.59;1604740;88;21405;-90
2021/05/19 00:53:48;;;;;;;2.92;2.33;;;;;;;37.12;39.93;160968.28;1609526;89;21215;-91
2021/05/19 00:56:20;;;;;;;2.98;2.55;;;;;;;37.11;39.91;160965.59;1596229;88;21852;-91
2021/05/19 00:58:56;;;;;;;3.37;2.55;;;;;;;37.11;39.88;160966.91;1596393;90;21368;-91
2021/05/19 01:01:34;;;;;;;2.47;2.10;;;;;;;37.05;39.95;160950.87;1599217;89;21223;-91
2021/05/19 01:04:10;;;;;;;3.22;2.35;;;;;;;37.06;39.93;160952.19;1596379;89;21766;-92
2021/05/19 01:07:03;;;;;;;3.25;2.30;;;;;;;37.04;39.93;160946.83;1535875;90;21258;-91
2021/05/19 01:09:36;;;;;;;3.20;2.45;;;;;;;37.04;39.97;160946.83;1596449;90;21401;-91
2021/05/19 01:12:13;;;;;;;3.42;2.58;;;;;;;37.05;39.98;160949.50;1596284;89;21971;-91
2021/05/19 01:14:47;;;;;;;3.00;2.35;;;;;;;37.08;39.85;160958.92;1596326;88;21369;-91
2021/05/19 01:17:19;;;;;;;2.80;2.35;;;;;;;37.07;39.88;160956.25;1596219;89;21400;-90
2021/05/19 01:19:54;;;;;;;5.62;2.50;;;;;;;37.06;39.86;160952.19;1596243;88;21215;-91
2021/05/19 01:22:29;;;;;;;3.40;2.42;;;;;;;37.02;39.90;160941.52;1580706;88;21241;-91
2021/05/19 01:25:02;;;;;;;3.22;2.37;;;;;;;37.07;39.86;160954.87;1580434;90;21222;-91
2021/05/19 01:27:35;;;;;;;2.52;2.30;;;;;;;37.06;39.86;160953.56;1596312;90;21445;-90
2021/05/19 01:30:09;;;;;;;3.08;2.02;;;;;;;37.08;39.82;160957.56;1596057;90;21860;-90
2021/05/19 01:32:42;;;;;;;4.20;2.87;;;;;;;37.09;39.77;160960.23;1596271;88;21262;-91
2021/05/19 01:35:15;;;;;;;2.42;2.22;;;;;;;37.10;39.75;160962.92;1596460;90;21245;-90
2021/05/19 01:37:49;;;;;;;3.58;2.27;;;;;;;37.06;39.76;160952.19;1596398;89;21535;-89
2021/05/19 01:40:23;;;;;;;3.75;2.42;;;;;;;37.03;39.80;160945.52;1596068;90;21407;-91
2021/05/19 01:42:56;;;;;;;2.90;2.60;;;;;;;36.98;39.88;160929.47;1598787;88;21245;-92
2021/05/19 01:45:34;;;;;;;2.87;2.52;;;;;;;36.98;39.90;160929.47;1557015;89;21772;-91
2021/05/19 01:48:08;;;;;;;3.67;2.50;;;;;;;36.89;40.01;160905.28;1602457;89;21293;-92
2021/05/19 01:50:42;;;;;;;2.72;2.50;;;;;;;36.92;39.97;160914.75;1599901;89;21360;-91
2021/05/19 01:53:15;;;;;;;3.20;2.90;;;;;;;36.94;39.92;160920.06;1587573;89;21302;-93
2021/05/19 01:55:47;;;;;;;3.60;2.58;;;;;;;36.89;40.01;160905.28;1605197;89;21213;-92
2021/05/19 01:58:20;;;;;;;2.95;2.65;;;;;;;36.95;39.93;160921.42;1604819;89;21218;-92
2021/05/19 02:00:54;;;;;;;3.08;2.62;;;;;;;36.91;39.95;160910.70;1603319;89;21273;-91
2021/05/19 02:03:29;;;;;;;3.85;3.05;;;;;;;36.94;39.90;160918.75;1605488;88;21306;-93
2021/05/19 02:06:15;;;;;;;3.10;2.27;;;;;;;36.96;39.86;160925.42;1605745;89;21831;-92
2021/05/19 02:08:51;;;;;;;4.22;2.55;;;;;;;36.92;39.91;160913.37;1594435;89;21253;-90
2021/05/19 02:11:25;;;;;;;3.85;2.85;;;;;;;36.97;39.88;160926.80;1598941;89;21280;-92
2021/05/19 02:13:59;;;;;;;3.00;2.62;;;;;;;36.96;39.84;160925.42;1594387;89;21183;-90
2021/05/19 02:16:32;;;;;;;3.15;2.60;;;;;;;36.86;39.97;160897.28;1595838;89;21397;-91
2021/05/19 02:19:04;;;;;;;3.52;2.83;;;;;;;36.81;40.03;160885.20;1594588;88;21238;-92
2021/05/19 02:21:43;;;;;;;3.10;2.70;;;;;;;36.86;40.01;160897.28;1577223;89;21424;-91
2021/05/19 02:24:17;;;;;;;3.60;2.75;;;;;;;36.86;39.97;160898.61;1629685;86;21380;-91
2021/05/19 02:26:50;;;;;;;3.70;3.22;;;;;;;36.89;39.88;160906.66;1629658;87;21889;-91
2021/05/19 02:29:25;;;;;;;3.85;2.90;;;;;;;36.79;40.03;160879.87;1647143;86;21213;-91
2021/05/19 02:31:57;;;;;;;3.85;3.22;;;;;;;36.82;39.98;160887.88;1646023;86;22101;-92
2021/05/19 02:34:30;;;;;;;5.75;3.83;;;;;;;36.87;39.92;160901.28;1653667;85;21243;-92
2021/05/19 02:37:02;;;;;;;4.05;3.30;;;;;;;36.89;39.87;160906.66;1630054;87;21921;-93
2021/05/19 02:39:35;;;;;;;6.20;4.25;;;;;;;37.46;38.98;161060.70;1629772;88;21715;-90
2021/05/19 02:42:09;;;;;;;3.72;2.60;;;;;;;37.08;39.47;160958.92;1629920;87;21330;-89
2021/05/19 02:44:43;;;;;;;4.83;3.00;;;;;;;36.97;39.69;160926.80;1629800;87;21361;-92
2021/05/19 02:47:15;;;;;;;4.08;2.92;;;;;;;36.99;39.66;160932.09;1629696;87;21226;-92
2021/05/19 02:49:49;;;;;;;3.72;3.05;;;;;;;37.04;39.53;160946.83;1629468;88;21422;-91
2021/05/19 02:52:21;;;;;;;3.83;3.42;;;;;;;36.97;39.67;160928.11;1629501;87;21369;-92
2021/05/19 02:54:54;;;;;;;4.00;3.08;;;;;;;36.98;39.63;160929.47;1629473;88;21352;-90
2021/05/19 02:57:27;;;;;;;3.95;3.20;;;;;;;36.95;39.68;160921.42;1629383;87;21352;-90
2021/05/19 03:00:00;;;;;;;5.10;4.12;;;;;;;36.98;39.66;160930.78;1629397;88;21402;-91
2021/05/19 03:02:32;;;;;;;4.92;3.70;;;;;;;37.11;39.45;160965.59;1629335;88;21500;-89
2021/05/19 03:05:06;;;;;;;4.65;3.60;;;;;;;37.17;39.32;160983.00;1629534;88;21388;-90
2021/05/19 03:07:38;;;;;;;4.37;3.65;;;;;;;37.14;39.35;160974.97;1629734;88;21246;-92
2021/05/19 03:10:11;;;;;;;4.58;3.70;;;;;;;37.24;39.27;161001.73;1629470;87;21231;-92
2021/05/19 03:12:44;;;;;;;4.65;3.67;;;;;;;37.20;39.25;160989.69;1629478;86;21404;-92
2021/05/19 03:15:17;;;;;;;3.87;3.45;;;;;;;37.22;39.21;160996.38;1629560;87;21397;-91
2021/05/19 03:17:49;;;;;;;5.35;3.80;;;;;;;37.22;39.18;160996.38;1629603;88;21726;-91
2021/05/19 03:20:23;;;;;;;4.15;3.70;;;;;;;37.28;39.09;161012.47;1629815;87;21361;-91
2021/05/19 03:22:55;;;;;;;4.60;3.70;;;;;;;37.31;39.03;161020.52;1629615;87;21361;-91
2021/05/19 03:25:29;;;;;;;6.20;3.90;;;;;;;37.39;38.89;161041.97;1629440;88;21435;-91
2021/05/19 03:28:01;;;;;;;4.78;3.30;;;;;;;37.83;38.57;161158.56;1630190;86;21778;-91
2021/05/19 03:30:35;;;;;;;6.03;3.47;;;;;;;37.37;38.85;161035.30;1629512;88;21400;-91
2021/05/19 03:33:08;;;;;;;4.12;3.60;;;;;;;37.31;38.94;161019.16;1629422;87;21250;-90
2021/05/19 03:35:42;;;;;;;4.90;3.95;;;;;;;37.23;39.02;160997.73;1630120;86;21373;-89
2021/05/19 03:38:18;;;;;;;7.17;3.90;;;;;;;37.25;39.03;161004.41;1639911;85;21816;-90
2021/05/19 03:40:51;;;;;;;7.35;4.03;;;;;;;37.29;38.99;161013.78;1631469;87;21352;-90
2021/05/19 03:43:24;;;;;;;5.17;3.70;;;;;;;37.30;38.93;161016.47;1629522;87;21485;-91
2021/05/19 03:45:56;;;;;;;5.50;4.28;;;;;;;37.25;39.00;161004.41;1629504;88;21345;-91
2021/05/19 03:48:29;;;;;;;5.28;3.62;;;;;;;37.25;39.02;161004.41;1631424;86;21938;-88
2021/05/19 03:51:01;;;;;;;5.95;3.65;;;;;;;37.19;39.12;160988.37;1592359;90;21254;-87
2021/05/19 03:53:34;;;;;;;4.83;3.60;;;;;;;37.19;39.14;160987.00;1605229;89;22389;-87
2021/05/19 03:56:07;;;;;;;4.42;3.55;;;;;;;37.56;38.48;161086.16;1607028;89;21263;-86
2021/05/19 03:58:40;;;;;;;5.45;3.95;;;;;;;37.22;39.00;160996.38;1596038;88;21501;-83
2021/05/19 04:01:12;;;;;;;4.60;3.70;;;;;;;37.15;39.12;160976.33;1624362;85;21304;-85
2021/05/19 04:03:51;;;;;;;4.22;3.80;;;;;;;37.20;39.09;160991.06;1656306;81;21723;-91
2021/05/19 04:06:24;;;;;;;4.25;3.30;;;;;;;37.26;39.04;161005.78;1677273;84;21175;-90
2021/05/19 04:09:23;;;;;;;5.75;3.08;;;;;;;37.24;39.03;161000.42;1665611;84;21273;-84
2021/05/19 04:11:55;;;;;;;3.62;3.25;;;;;;;37.21;39.04;160993.69;1629296;86;21354;-88
2021/05/19 04:14:34;;;;;;;4.67;3.75;;;;;;;37.28;38.96;161011.09;1683929;80;21342;-87
2021/05/19 04:17:06;;;;;;;3.83;2.98;;;;;;;37.32;38.96;161023.19;1683006;81;21833;-89
2021/05/19 04:19:39;;;;;;;5.00;3.95;;;;;;;37.29;39.04;161013.78;1706118;83;21309;-87
2021/05/19 04:22:11;;;;;;;3.95;3.08;;;;;;;37.30;39.07;161017.83;1713778;83;21889;-86
2021/05/19 04:24:44;;;;;;;3.75;2.85;;;;;;;37.29;39.04;161013.78;1699030;84;21204;-86
2021/05/19 04:27:17;;;;;;;3.77;3.17;;;;;;;37.30;39.05;161016.47;1690644;84;21254;-85
2021/05/19 04:29:50;;;;;;;3.45;3.15;;;;;;;37.31;39.13;161019.16;1692239;84;21259;-84
2021/05/19 04:32:23;;;;;;;3.72;3.22;;;;;;;37.32;39.10;161021.83;1685042;84;21235;-84
2021/05/19 04:34:56;;;;;;;4.15;3.33;;;;;;;37.38;39.10;161037.97;1679737;84;21536;-85
2021/05/19 04:37:36;;;;;;;3.52;2.90;;;;;;;37.44;39.03;161054.02;1679568;84;21376;-85
2021/05/19 04:40:26;;;;;;;3.10;2.45;;;;;;;37.42;39.01;161048.66;1678274;84;21412;-87
2021/05/19 04:43:05;;;;;;;4.08;2.80;;;;;;;37.44;39.03;161055.33;1680251;84;21251;-86
2021/05/19 04:45:58;;;;;;;3.15;2.72;;;;;;;37.43;39.12;161052.70;1672584;84;21195;-87
2021/05/19 04:48:54;;;;;;;3.60;2.67;;;;;;;37.45;39.25;161056.70;1679744;84;21365;-87
2021/05/19 04:51:35;;;;;;;4.12;3.05;;;;;;;37.50;39.24;161071.44;1678977;84;21267;-87
2021/05/19 04:54:20;;;;;;;4.97;3.05;;;;;;;37.52;39.27;161075.42;1680085;84;21388;-87
2021/05/19 04:56:53;;;;;;;3.27;2.98;;;;;;;37.52;39.27;161076.80;1678368;84;21471;-83
2021/05/19 04:59:25;;;;;;;4.45;2.85;;;;;;;37.59;39.19;161095.53;1672484;84;21389;-86
2021/05/19 05:01:58;;;;;;;3.35;2.92;;;;;;;37.62;39.19;161102.20;1677380;84;21398;-86
2021/05/19 05:04:31;;;;;;;3.85;2.98;;;;;;;37.62;39.20;161102.20;1686449;83;21366;-82
2021/05/19 05:07:04;;;;;;;5.85;3.70;;;;;;;37.64;39.21;161108.94;1693660;84;21354;-81
2021/05/19 05:09:37;;;;;;;3.40;3.10;;;;;;;37.64;39.21;161108.94;1694490;84;21274;-84
2021/05/19 05:12:10;;;;;;;3.67;3.20;;;;;;;37.60;39.29;161098.20;1699254;83;21185;-82
2021/05/19 05:14:43;;;;;;;3.83;3.08;;;;;;;37.63;39.29;161106.25;1701159;84;21234;-82
2021/05/19 05:17:18;;;;;;;4.55;3.40;;;;;;;37.63;39.30;161104.89;1711209;83;21180;-82
2021/05/19 05:19:51;;;;;;;4.70;2.95;;;;;;;37.65;39.31;161111.62;1706689;84;21409;-82
2021/05/19 05:22:24;;;;;;;6.75;3.27;;;;;;;37.74;39.29;161134.34;1706998;84;21176;-81
2021/05/19 05:24:57;;;;;;;4.78;2.98;;;;;;;37.79;39.24;161147.81;1706523;84;21272;-84
2021/05/19 05:27:29;;;;;;;3.55;3.10;;;;;;;37.78;39.30;161145.09;1706214;84;21212;-83
2021/05/19 05:30:03;;;;;;;4.28;3.45;;;;;;;37.78;39.30;161145.09;1706733;84;21714;-83
2021/05/19 05:32:36;;;;;;;3.98;3.20;;;;;;;37.86;39.24;161167.92;1706723;84;21220;-83
2021/05/19 05:35:09;;;;;;;3.67;3.25;;;;;;;37.93;39.19;161185.34;1706771;84;21315;-82
2021/05/19 05:37:41;;;;;;;5.40;3.02;;;;;;;37.87;39.20;161170.59;1706659;84;21303;-83
2021/05/19 05:40:14;;;;;;;3.17;2.87;;;;;;;38.38;38.80;161308.64;1706936;84;21385;-83
2021/05/19 05:42:46;;;;;;;5.12;3.33;;;;;;;37.94;39.16;161189.34;1706880;84;21347;-85
2021/05/19 05:45:20;;;;;;;3.87;3.05;;;;;;;38.15;38.75;161246.97;1706688;84;21331;-83
2021/05/19 05:47:52;;;;;;;4.40;3.15;;;;;;;37.99;39.10;161204.08;1706671;84;21231;-83
2021/05/19 05:50:25;;;;;;;3.35;3.02;;;;;;;38.01;39.06;161208.13;1706621;84;21367;-83
2021/05/19 05:52:57;;;;;;;5.67;3.37;;;;;;;38.09;38.84;161229.55;1706740;84;21841;-82
2021/05/19 05:55:30;;;;;;;3.02;2.65;;;;;;;38.01;39.00;161208.13;1706776;84;21180;-82
2021/05/19 05:58:02;;;;;;;4.53;3.00;;;;;;;38.13;38.86;161241.59;1706665;84;21310;-82
2021/05/19 06:00:36;;;;;;;3.98;3.27;;;;;;;38.04;39.01;161217.50;1706647;84;21315;-82
2021/05/19 06:03:09;;;;;;;5.42;3.25;;;;;;;38.06;39.04;161222.86;1706910;84;21362;-81
2021/05/19 06:05:42;;;;;;;4.35;3.58;;;;;;;38.04;39.12;161217.50;1706752;84;21160;-82
2021/05/19 06:08:14;;;;;;;4.37;3.33;;;;;;;38.12;39.15;161237.59;1706696;84;21314;-82
2021/05/19 06:10:46;;;;;;;3.70;3.17;;;;;;;38.09;39.22;161229.55;1706680;84;21322;-82
2021/05/19 06:13:19;;;;;;;5.08;3.10;;;;;;;38.37;39.13;161305.97;1706671;84;21887;-83
2021/05/19 06:15:52;;;;;;;3.67;2.90;;;;;;;38.19;39.08;161257.70;1706793;84;21769;-83
2021/05/19 06:18:24;;;;;;;3.15;2.85;;;;;;;38.17;39.20;161252.33;1707927;83;21397;-84
2021/05/19 06:20:59;;;;;;;5.87;2.72;;;;;;;38.85;38.56;161434.67;1716162;83;21191;-83
2021/05/19 06:23:31;;;;;;;5.50;3.05;;;;;;;38.39;38.85;161309.97;1716123;83;21180;-82
2021/05/19 06:26:04;;;;;;;4.15;2.60;;;;;;;38.30;39.02;161287.22;1716255;83;21184;-82
2021/05/19 06:28:36;;;;;;;4.22;2.70;;;;;;;38.29;39.02;161284.53;1716130;83;21749;-83
2021/05/19 06:31:09;;;;;;;3.92;2.50;;;;;;;38.31;39.02;161289.86;1716118;83;21238;-81
2021/05/19 06:33:42;;;;;;;2.83;2.40;;;;;;;38.34;39.03;161297.91;1716054;83;21168;-82
2021/05/19 06:36:14;;;;;;;2.87;2.30;;;;;;;38.33;39.04;161295.22;1716030;83;21218;-83
2021/05/19 06:38:46;;;;;;;2.20;2.00;;;;;;;38.34;39.00;161297.91;1716134;83;21204;-82
2021/05/19 06:41:20;;;;;;;5.37;2.27;;;;;;;38.37;39.03;161305.97;1716034;83;21199;-83
2021/05/19 06:43:54;;;;;;;2.77;2.17;;;;;;;38.42;38.98;161318.02;1715999;83;21188;-82
2021/05/19 06:46:27;;;;;;;2.52;1.95;;;;;;;38.39;39.05;161309.97;1716020;83;21239;-84
2021/05/19 06:49:03;;;;;;;2.50;2.30;;;;;;;38.44;39.05;161324.70;1716122;83;21223;-82
2021/05/19 06:51:35;;;;;;;2.27;1.98;;;;;;;38.50;39.03;161340.81;1716088;83;21172;-83
2021/05/19 06:54:07;;;;;;;4.50;1.90;;;;;;;38.54;39.02;161350.17;1716031;83;21184;-83
2021/05/19 06:56:47;;;;;;;2.12;1.80;;;;;;;38.62;38.96;161372.97;1716109;83;21242;-82
2021/05/19 06:59:17;;;;;;;2.08;1.87;;;;;;;38.70;38.89;161394.45;1702336;83;21318;-82
2021/05/19 07:01:49;;;;;;;2.17;1.95;;;;;;;38.77;38.87;161411.87;1716059;83;21187;-82
2021/05/19 07:04:22;;;;;;;2.22;1.98;;;;;;;38.87;38.79;161438.67;1716164;83;21186;-82
2021/05/19 07:06:56;;;;;;;2.60;2.00;;;;;;;38.94;38.72;161458.78;1716159;83;21700;-82
2021/05/19 07:09:29;;;;;;;2.67;1.90;;;;;;;38.94;38.71;161458.78;1716001;83;21717;-83
2021/05/19 07:12:02;;;;;;;1.98;1.80;;;;;;;38.95;38.75;161461.47;1716203;83;21224;-82
2021/05/19 07:14:44;;;;;;;3.27;1.98;;;;;;;39.04;38.64;161485.59;1716124;83;21243;-83
2021/05/19 07:17:10;;;;;;;2.52;1.60;;;;;;;39.03;38.61;161484.28;1715936;83;21725;-83
2021/05/19 07:19:43;;;;;;;2.65;1.60;;;;;;;39.06;38.54;161490.97;1714052;83;21683;-82
2021/05/19 07:22:15;;;;;;;3.75;1.82;;;;;;;39.05;38.49;161488.28;1692555;84;21169;-85
2021/05/19 07:24:50;;;;;;;1.82;1.72;;;;;;;39.14;38.48;161512.44;1706710;84;21829;-82
2021/05/19 07:27:22;;;;;;;1.92;1.72;;;;;;;39.18;38.25;161524.50;1706683;84;21307;-83
2021/05/19 07:29:55;;;;;;;3.85;1.77;;;;;;;39.16;38.35;161519.19;1706660;84;21363;-82
2021/05/19 07:32:27;;;;;;;2.37;1.98;;;;;;;39.14;38.40;161513.81;1706554;84;21394;-82
2021/05/19 07:35:00;;;;;;;3.27;1.52;;;;;;;39.23;38.32;161536.62;1706726;84;21355;-83
2021/05/19 07:37:33;;;;;;;2.35;1.70;;;;;;;39.24;38.37;161539.25;1706723;84;21694;-83
2021/05/19 07:40:06;;;;;;;2.02;1.47;;;;;;;39.28;38.34;161550.00;1706648;84;21362;-83
2021/05/19 07:42:39;;;;;;;3.10;1.72;;;;;;;39.31;38.31;161559.38;1706705;83;21523;-83
2021/05/19 07:45:12;;;;;;;3.35;1.75;;;;;;;39.36;38.31;161572.81;1707079;84;21182;-82
2021/05/19 07:47:43;;;;;;;2.47;1.50;;;;;;;39.42;38.21;161587.55;1706648;84;21314;-82
2021/05/19 07:50:14;;;;;;;1.35;1.10;;;;;;;39.45;38.18;161595.61;1706933;84;21782;-82
2021/05/19 07:52:45;;;;;;;1.67;1.20;;;;;;;39.50;38.06;161608.98;1706759;84;21394;-82
2021/05/19 07:55:29;;;;;;;3.22;2.20;;;;;;;39.52;37.97;161615.78;1706754;84;21323;-82
2021/05/19 07:58:11;;;;;;;0.93;0.90;;;;;;;39.58;37.91;161630.53;1706906;84;21323;-82
2021/05/19 08:03:07;;;;;;;;;;;;;;;39.64;37.72;161647.92;1709341;84;21188;-83
2021/05/19 08:05:40;;;;;;;1.25;1.15;;;;;;;39.99;37.42;161741.84;1706914;84;20299;-83
2021/05/19 08:08:12;;;;;;;1.95;1.45;;;;;;;39.69;37.68;161661.34;1707053;84;21334;-83
2021/05/19 08:10:44;;;;;;;1.15;1.00;;;;;;;39.79;37.52;161688.16;1706782;84;21322;-82
2021/05/19 08:13:15;;;;;;;1.50;0.95;;;;;;;39.77;37.59;161681.47;1706773;84;21366;-85
2021/05/19 08:15:46;;;;;;;1.75;1.02;;;;;;;39.91;37.43;161720.36;1692619;84;21232;-83
2021/05/19 08:18:19;;;;;;;2.65;1.10;;;;;;;39.96;37.33;161735.16;1706791;84;21687;-85
2021/05/19 08:20:52;;;;;;;1.77;1.00;;;;;;;39.99;37.32;161743.22;1703846;83;21697;-83
2021/05/19 08:23:24;;;;;;;2.33;2.02;;;;;;;40.05;37.22;161757.97;1695079;84;21353;-83
2021/05/19 08:25:57;;;;;;;1.40;0.90;;;;;;;40.08;37.11;161767.34;1694864;84;21350;-84
2021/05/19 08:28:31;;;;;;;1.05;1.00;;;;;;;40.12;36.99;161778.09;1695096;84;21865;-84
2021/05/19 08:31:04;;;;;;;1.27;1.17;;;;;;;40.19;36.90;161795.55;1695061;84;21315;-85
2021/05/19 08:33:38;;;;;;;1.00;0.80;;;;;;;40.19;36.77;161796.86;1694309;84;21390;-83
2021/05/19 08:36:11;;;;;;;1.10;1.00;;;;;;;40.21;36.72;161800.92;1694943;84;21303;-84
2021/05/19 08:38:45;;;;;;;2.58;0.90;;;;;;;40.19;36.58;161796.86;1695012;84;21378;-83
2021/05/19 08:41:18;;;;;;;1.12;0.80;;;;;;;40.22;36.49;161803.61;1695129;84;21861;-85
2021/05/19 08:43:50;;;;;;;1.15;0.70;;;;;;;40.14;36.51;161782.11;1695068;84;21184;-84
2021/05/19 08:46:22;;;;;;;0.80;0.70;;;;;;;40.21;36.43;161802.23;1695004;84;21832;-84
2021/05/19 08:49:03;;;;;;;1.75;0.90;;;;;;;40.18;36.33;161792.86;1695074;84;21223;-84
2021/05/19 08:51:35;;;;;;;1.07;0.80;;;;;;;40.21;36.27;161802.23;1694868;84;21357;-84
2021/05/19 08:54:09;;;;;;;0.75;0.70;;;;;;;40.24;36.18;161810.30;1694920;84;21464;-83
2021/05/19 08:56:43;;;;;;;0.68;0.68;;;;;;;40.27;36.17;161817.00;1694968;84;21183;-83
2021/05/19 08:59:16;;;;;;;1.07;0.90;;;;;;;40.27;36.17;161817.00;1695168;84;21659;-83
2021/05/19 09:01:50;;;;;;;0.75;0.75;;;;;;;40.27;36.10;161817.00;1694953;84;21318;-82
2021/05/19 09:04:24;;;;;;;1.07;0.80;;;;;;;40.30;36.06;161826.38;1694931;84;21192;-83
2021/05/19 09:07:04;;;;;;;1.35;0.70;;;;;;;40.30;36.02;161825.06;1694973;84;21330;-83
2021/05/19 09:09:38;;;;;;;1.60;0.85;;;;;;;40.31;36.04;161829.06;1694918;84;21227;-83
2021/05/19 09:12:13;;;;;;;0.80;0.72;;;;;;;40.34;35.97;161835.81;1695074;84;21239;-84
2021/05/19 09:15:02;;;;;;;0.80;0.80;;;;;;;40.29;35.95;161823.69;1694822;83;21670;-83
2021/05/19 09:17:35;;;;;;;0.88;0.80;;;;;;;40.28;35.92;161819.69;1695007;84;21390;-83
2021/05/19 09:20:16;;;;;;;2.67;0.72;;;;;;;40.29;35.87;161822.37;1694928;84;21314;-83
2021/05/19 09:22:55;;;;;;;1.70;0.70;;;;;;;40.28;35.83;161821.00;1694861;83;21389;-82
2021/05/19 09:25:34;;;;;;;1.27;0.70;;;;;;;40.29;35.84;161823.69;1694990;84;21350;-81
2021/05/19 09:28:04;;;;;;;1.45;0.90;;;;;;;40.34;35.77;161837.17;1695007;84;21870;-84
2021/05/19 09:30:44;;;;;;;0.85;0.75;;;;;;;40.36;35.80;161842.55;1695028;84;21758;-83
2021/05/19 09:33:18;;;;;;;0.98;0.62;;;;;;;40.41;35.74;161854.63;1694934;84;21188;-82
2021/05/19 09:36:19;;;;;;;4.20;0.78;;;;;;;40.46;35.66;161869.37;1694857;84;21346;-83
2021/05/19 09:38:53;;;;;;;0.80;0.63;;;;;;;40.53;35.62;161888.14;1694820;84;21310;-87
2021/05/19 09:41:36;;;;;;;0.70;0.62;;;;;;;40.59;35.66;161904.28;1694321;84;21320;-83
2021/05/19 09:44:12;;;;;;;1.20;0.80;;;;;;;40.68;35.72;161927.09;1694346;83;21303;-84
2021/05/19 09:46:49;;;;;;;0.93;0.68;;;;;;;40.81;35.66;161963.36;1694557;84;21378;-83
2021/05/19 09:49:24;;;;;;;2.60;0.95;;;;;;;40.86;35.70;161976.75;1694874;84;21354;-83
2021/05/19 09:52:11;;;;;;;0.60;0.60;;;;;;;40.91;35.86;161991.52;1693073;84;21334;-84
2021/05/19 09:54:45;;;;;;;1.57;0.80;;;;;;;41.00;35.76;162015.72;1694942;84;21236;-86
2021/05/19 09:57:19;;;;;;;2.37;0.85;;;;;;;41.09;35.59;162039.86;1695003;84;21184;-85
2021/05/19 09:59:52;;;;;;;0.57;0.50;;;;;;;41.12;35.72;162047.94;1694665;84;21566;-85
2021/05/19 10:02:30;;;;;;;0.60;0.60;;;;;;;41.19;35.62;162066.75;1694929;84;21342;-86
2021/05/19 10:05:06;;;;;;;1.95;0.70;;;;;;;41.25;35.55;162081.52;1695020;84;21836;-87
2021/05/19 10:07:33;;;;;;;0.68;0.68;;;;;;;41.33;35.47;162104.34;1694916;83;21233;-85
2021/05/19 10:10:07;;;;;;;0.53;0.50;;;;;;;41.38;35.44;162117.75;1694800;84;21320;-86
2021/05/19 10:12:41;;;;;;;1.35;0.70;;;;;;;41.41;35.46;162124.50;1694834;84;21336;-86
2021/05/19 10:15:17;;;;;;;1.27;0.90;;;;;;;41.48;35.49;162144.64;1673531;85;21254;-89
2021/05/19 10:18:04;;;;;;;0.65;0.60;;;;;;;41.51;35.66;162151.34;1672071;85;21210;-83
2021/05/19 10:20:44;;;;;;;0.75;0.70;;;;;;;41.59;35.52;162174.23;1684505;84;21216;-84
2021/05/19 10:23:16;;;;;;;0.50;0.50;;;;;;;41.70;35.45;162203.77;1690724;83;22474;-86
2021/05/19 10:25:50;;;;;;;0.65;0.50;;;;;;;41.83;35.34;162237.31;1672469;84;21239;-84
2021/05/19 10:28:24;;;;;;;1.50;0.60;;;;;;;41.88;35.39;162253.45;1693697;84;21301;-85
2021/05/19 10:30:58;;;;;;;1.57;0.60;;;;;;;41.93;35.26;162265.53;1612843;86;21263;-86
2021/05/19 10:33:46;;;;;;;0.90;0.42;;;;;;;42.05;34.98;162299.14;1654457;87;21292;-84
2021/05/19 10:36:40;;;;;;;2.13;0.70;;;;;;;42.13;35.03;162319.30;1654440;87;21265;-83
2021/05/19 10:39:19;;;;;;;0.40;0.40;;;;;;;42.27;34.61;162356.91;1651934;87;21244;-84
2021/05/19 10:41:54;;;;;;;0.50;0.50;;;;;;;42.33;34.66;162373.00;1643280;87;21403;-89
2021/05/19 10:44:29;;;;;;;0.40;0.40;;;;;;;42.35;34.76;162379.81;1643500;87;21305;-87
2021/05/19 10:47:14;;;;;;;1.05;0.50;;;;;;;42.35;34.67;162379.81;1643292;87;21268;-85
2021/05/19 10:49:58;;;;;;;0.88;0.47;;;;;;;42.42;34.68;162397.28;1641314;87;21245;-84
2021/05/19 10:52:46;;;;;;;1.02;0.60;;;;;;;42.51;34.67;162421.45;1627660;87;21827;-83
2021/05/19 10:58:08;;;;;;;0.40;0.40;;;;;;;42.79;34.51;162498.08;1629828;86;21661;-85
2021/05/19 11:00:44;;;;;;;0.98;0.62;;;;;;;42.97;34.38;162547.80;1580202;90;21441;-83
2021/05/19 11:03:18;;;;;;;1.50;0.50;;;;;;;42.78;34.43;162495.38;1613424;87;21304;-82
2021/05/19 11:06:01;;;;;;;0.57;0.57;;;;;;;42.65;34.40;162459.08;1654202;87;21228;-82
2021/05/19 11:08:35;;;;;;;0.70;0.50;;;;;;;42.66;34.21;162461.72;1654487;87;21255;-83
2021/05/19 11:11:25;;;;;;;0.55;0.40;;;;;;;42.69;34.33;162469.78;1654118;87;21302;-83
2021/05/19 11:14:12;;;;;;;0.50;0.40;;;;;;;42.71;34.26;162476.50;1653391;87;21782;-82
2021/05/19 11:17:18;;;;;;;1.85;0.50;;;;;;;42.76;34.24;162488.69;1643217;87;21220;-83
2021/05/19 11:19:36;;;;;;;2.98;0.62;;;;;;;42.79;34.26;162498.08;1644098;87;21370;-83
2021/05/19 11:22:14;;;;;;;1.95;0.60;;;;;;;42.84;34.28;162511.48;1654298;87;21228;-82
2021/05/19 11:24:58;;;;;;;0.95;0.50;;;;;;;42.81;34.29;162503.45;1655991;86;21272;-82
2021/05/19 11:27:34;;;;;;;0.50;0.50;;;;;;;42.84;34.18;162510.16;1657829;86;21428;-83
2021/05/19 11:30:10;;;;;;;0.60;0.60;;;;;;;42.88;34.27;162522.25;1657855;86;21365;-81
2021/05/19 11:32:44;;;;;;;0.53;0.53;;;;;;;42.80;34.42;162499.41;1657455;86;21295;-81
2021/05/19 11:35:21;;;;;;;0.88;0.60;;;;;;;42.80;34.43;162499.41;1657307;86;21185;-82
2021/05/19 11:38:07;;;;;;;0.68;0.50;;;;;;;42.81;34.51;162503.45;1660640;86;21187;-82
2021/05/19 11:40:49;;;;;;;1.40;0.72;;;;;;;42.85;34.43;162512.86;1690359;84;21413;-84
2021/05/19 11:43:23;;;;;;;1.05;0.75;;;;;;;42.82;34.48;162506.16;1702643;84;21362;-81
2021/05/19 11:46:00;;;;;;;0.50;0.50;;;;;;;42.84;34.41;162511.48;1702464;83;21172;-82
2021/05/19 11:48:32;;;;;;;0.70;0.70;;;;;;;42.81;34.32;162502.09;1702619;84;22183;-82
2021/05/19 11:51:22;;;;;;;0.70;0.70;;;;;;;42.76;34.49;162488.69;1701997;83;21850;-84
2021/05/19 11:54:00;;;;;;;1.82;0.72;;;;;;;42.74;34.46;162484.62;1702286;84;21701;-81
2021/05/19 11:56:52;;;;;;;1.15;0.62;;;;;;;43.11;33.75;162585.44;1702525;84;21378;-81
2021/05/19 11:59:33;;;;;;;1.02;0.72;;;;;;;42.67;34.45;162464.41;1710159;83;21168;-83
2021/05/19 12:02:13;;;;;;;0.70;0.70;;;;;;;42.62;34.56;162452.31;1702246;84;21361;-82
2021/05/19 12:04:46;;;;;;;2.17;0.93;;;;;;;42.67;34.60;162464.41;1702725;84;21472;-86